createdAt,value
2017-06-18T00:00:25.815Z,10.63
2017-06-18T00:02:54.691Z,11.30
2017-06-18T00:05:23.659Z,11.48
2017-06-18T00:07:52.650Z,10.16
2017-06-18T00:10:21.535Z,12.00
2017-06-18T00:12:50.419Z,12.15
2017-06-18T00:15:19.513Z,12.57
2017-06-18T00:17:48.406Z,10.78
2017-06-18T00:20:17.206Z,13.63
2017-06-18T00:22:46.295Z,12.10
2017-06-18T00:25:15.079Z,13.32
2017-06-18T00:27:44.050Z,11.98
2017-06-18T00:30:12.955Z,16.02
2017-06-18T00:32:41.847Z,12.12
2017-06-18T00:35:10.638Z,12.85
2017-06-18T00:37:39.458Z,12.57
2017-06-18T00:40:08.240Z,13.08
2017-06-18T00:42:37.090Z,12.88
2017-06-18T00:45:05.903Z,12.28
2017-06-18T00:47:34.687Z,12.77
2017-06-18T00:50:03.570Z,12.65
2017-06-18T00:52:32.427Z,11.10
2017-06-18T00:55:01.230Z,13.87
2017-06-18T00:57:30.006Z,10.52
2017-06-18T00:59:58.810Z,9.90
2017-06-18T01:02:27.698Z,11.55
2017-06-18T01:04:56.478Z,10.65
2017-06-18T01:07:25.378Z,10.30
2017-06-18T01:09:54.370Z,10.48
2017-06-18T01:12:23.266Z,11.10
2017-06-18T01:14:52.150Z,10.23
2017-06-18T01:17:21.014Z,11.30
2017-06-18T01:19:50.518Z,12.72
2017-06-18T01:22:19.322Z,12.53
2017-06-18T01:24:48.534Z,9.90
2017-06-18T01:27:17.310Z,11.20
2017-06-18T01:29:47.323Z,12.43
2017-06-18T01:32:16.142Z,11.58
2017-06-18T01:34:45.010Z,14.92
2017-06-18T01:37:13.802Z,14.48
2017-06-18T01:39:42.622Z,15.88
2017-06-18T01:42:11.481Z,11.62
2017-06-18T01:44:40.478Z,10.98
2017-06-18T01:47:09.358Z,9.38
2017-06-18T01:49:38.121Z,10.07
2017-06-18T01:52:06.906Z,10.65
2017-06-18T01:54:35.694Z,10.15
2017-06-18T01:57:04.509Z,12.15
2017-06-18T01:59:33.393Z,10.92
2017-06-18T02:02:02.190Z,12.55
2017-06-18T02:04:31.074Z,10.43
2017-06-18T02:06:59.986Z,7.83
2017-06-18T02:09:28.785Z,11.18
2017-06-18T02:11:57.646Z,10.60
2017-06-18T02:14:26.429Z,12.42
2017-06-18T02:16:55.201Z,12.20
2017-06-18T02:19:24.013Z,11.92
2017-06-18T02:21:53.014Z,9.65
2017-06-18T02:24:21.789Z,16.68
2017-06-18T02:26:50.569Z,9.88
2017-06-18T02:29:19.469Z,12.32
2017-06-18T02:31:48.397Z,9.93
2017-06-18T02:34:17.165Z,10.68
2017-06-18T02:36:46.021Z,10.00
2017-06-18T02:39:14.798Z,9.67
2017-06-18T02:41:43.577Z,15.00
2017-06-18T02:44:12.389Z,9.88
2017-06-18T02:46:41.169Z,9.55
2017-06-18T02:49:09.973Z,10.15
2017-06-18T02:51:38.769Z,10.37
2017-06-18T02:54:07.541Z,10.07
2017-06-18T02:56:36.333Z,9.47
2017-06-18T02:59:05.221Z,9.27
2017-06-18T03:01:33.993Z,10.53
2017-06-18T03:04:02.793Z,10.72
2017-06-18T03:06:31.685Z,11.18
2017-06-18T03:09:00.468Z,31.45
2017-06-18T03:11:29.285Z,15.22
2017-06-18T03:13:58.084Z,36.02
2017-06-18T03:16:26.940Z,21.43
2017-06-18T03:18:55.813Z,12.37
2017-06-18T03:21:30.468Z,13.10
2017-06-18T03:23:59.248Z,11.50
2017-06-18T03:26:28.956Z,14.20
2017-06-18T03:28:57.740Z,11.67
2017-06-18T03:31:26.516Z,25.52
2017-06-18T03:33:56.124Z,14.95
2017-06-18T03:36:24.933Z,17.52
2017-06-18T03:38:53.708Z,17.75
2017-06-18T03:41:22.588Z,17.97
2017-06-18T03:43:51.376Z,15.90
2017-06-18T03:46:20.160Z,15.55
2017-06-18T03:48:49.929Z,15.45
2017-06-18T03:51:18.772Z,21.45
2017-06-18T03:53:47.668Z,19.38
2017-06-18T03:56:16.448Z,14.57
2017-06-18T03:58:45.249Z,12.87
2017-06-18T04:01:14.024Z,15.00
2017-06-18T04:03:42.808Z,15.23
2017-06-18T04:06:11.608Z,12.87
2017-06-18T04:08:40.429Z,13.07
2017-06-18T04:11:09.296Z,14.67
2017-06-18T04:13:38.140Z,14.63
2017-06-18T04:16:06.932Z,15.60
2017-06-18T04:18:35.720Z,12.47
2017-06-18T04:21:04.529Z,11.53
2017-06-18T04:23:33.328Z,12.88
2017-06-18T04:26:02.124Z,12.12
2017-06-18T04:28:30.996Z,13.12
2017-06-18T04:30:59.784Z,13.08
2017-06-18T04:33:28.596Z,13.78
2017-06-18T04:35:57.424Z,14.63
2017-06-18T04:38:26.272Z,12.97
2017-06-18T04:40:55.051Z,11.58
2017-06-18T04:43:24.003Z,11.33
2017-06-18T04:45:52.760Z,12.67
2017-06-18T04:48:21.560Z,13.02
2017-06-18T04:50:50.399Z,13.68
2017-06-18T04:53:19.180Z,15.32
2017-06-18T04:55:47.960Z,15.53
2017-06-18T04:58:18.175Z,14.15
2017-06-18T05:00:46.977Z,16.83
2017-06-18T05:03:15.859Z,15.00
2017-06-18T05:05:45.655Z,13.93
2017-06-18T05:08:14.491Z,15.87
2017-06-18T05:10:43.455Z,15.33
2017-06-18T05:13:12.276Z,18.67
2017-06-18T05:15:41.083Z,18.15
2017-06-18T05:18:09.859Z,17.53
2017-06-18T05:20:38.691Z,16.83
2017-06-18T05:23:08.096Z,19.85
2017-06-18T05:25:36.927Z,18.56
2017-06-18T05:28:05.803Z,18.08
2017-06-18T05:30:34.647Z,17.23
2017-06-18T05:33:03.471Z,14.30
2017-06-18T05:35:32.351Z,17.37
2017-06-18T05:38:01.263Z,16.88
2017-06-18T05:40:30.055Z,16.24
2017-06-18T05:42:58.835Z,14.82
2017-06-18T05:45:27.655Z,15.12
2017-06-18T05:47:56.523Z,15.64
2017-06-18T05:50:25.319Z,14.24
2017-06-18T05:52:54.141Z,14.18
2017-06-18T05:55:22.923Z,13.66
2017-06-18T05:57:51.767Z,13.50
2017-06-18T06:00:20.527Z,13.66
2017-06-18T06:02:49.326Z,12.36
2017-06-18T06:05:18.151Z,12.66
2017-06-18T06:07:46.992Z,10.94
2017-06-18T06:10:15.783Z,11.00
2017-06-18T06:12:44.602Z,14.08
2017-06-18T06:15:13.371Z,11.80
2017-06-18T06:17:42.246Z,11.86
2017-06-18T06:20:11.063Z,12.36
2017-06-18T06:22:39.843Z,11.18
2017-06-18T06:25:08.619Z,10.18
2017-06-18T06:27:37.443Z,10.56
2017-06-18T06:30:06.287Z,10.68
2017-06-18T06:32:35.062Z,12.74
2017-06-18T06:35:03.855Z,11.16
2017-06-18T06:37:32.659Z,9.56
2017-06-18T06:40:01.534Z,11.18
2017-06-18T06:42:30.350Z,11.14
2017-06-18T06:44:59.131Z,11.86
2017-06-18T06:47:28.022Z,9.10
2017-06-18T06:49:56.834Z,9.98
2017-06-18T06:52:25.610Z,9.94
2017-06-18T06:54:54.387Z,10.54
2017-06-18T06:57:23.194Z,11.58
2017-06-18T06:59:51.986Z,11.54
2017-06-18T07:02:20.830Z,11.44
2017-06-18T07:04:49.762Z,10.10
2017-06-18T07:07:18.571Z,9.42
2017-06-18T07:09:47.362Z,8.74
2017-06-18T07:12:16.202Z,9.64
2017-06-18T07:14:45.066Z,8.84
2017-06-18T07:17:14.434Z,8.94
2017-06-18T07:19:43.206Z,9.90
2017-06-18T07:22:11.978Z,8.04
2017-06-18T07:24:40.741Z,8.82
2017-06-18T07:27:09.530Z,7.96
2017-06-18T07:29:38.386Z,11.84
2017-06-18T07:32:07.174Z,8.26
2017-06-18T07:34:35.982Z,8.92
2017-06-18T07:37:04.770Z,7.16
2017-06-18T07:39:33.538Z,8.30
2017-06-18T07:42:01.677Z,8.24
2017-06-18T07:44:30.478Z,8.16
2017-06-18T07:46:59.254Z,7.48
2017-06-18T07:49:28.094Z,9.36
2017-06-18T07:51:56.858Z,6.58
2017-06-18T07:54:25.729Z,6.70
2017-06-18T07:56:55.001Z,6.36
2017-06-18T07:59:23.869Z,6.34
2017-06-18T08:01:52.657Z,6.62
2017-06-18T08:04:21.545Z,5.62
2017-06-18T08:06:50.454Z,7.04
2017-06-18T08:09:19.233Z,6.60
2017-06-18T08:11:48.001Z,11.02
2017-06-18T08:14:16.785Z,6.18
2017-06-18T08:16:46.573Z,5.78
2017-06-18T08:19:15.461Z,5.88
2017-06-18T08:21:44.274Z,6.62
2017-06-18T08:24:13.057Z,5.56
2017-06-18T08:26:41.845Z,6.50
2017-06-18T08:29:10.612Z,6.48
2017-06-18T08:31:39.400Z,6.76
2017-06-18T08:34:08.237Z,5.46
2017-06-18T08:36:37.023Z,6.48
2017-06-18T08:39:05.905Z,6.32
2017-06-18T08:41:34.704Z,7.40
2017-06-18T08:44:03.461Z,8.94
2017-06-18T08:46:32.253Z,8.28
2017-06-18T08:49:01.024Z,5.34
2017-06-18T08:51:30.109Z,7.64
2017-06-18T08:53:59.097Z,5.60
2017-06-18T08:56:27.961Z,6.16
2017-06-18T08:58:56.720Z,7.56
2017-06-18T09:01:25.496Z,6.30
2017-06-18T09:03:54.264Z,7.38
2017-06-18T09:06:23.037Z,7.46
2017-06-18T09:08:51.842Z,8.00
2017-06-18T09:11:20.636Z,5.44
2017-06-18T09:13:49.400Z,5.88
2017-06-18T09:16:18.212Z,7.20
2017-06-18T09:18:46.992Z,5.06
2017-06-18T09:21:15.756Z,4.72
2017-06-18T09:23:44.576Z,4.42
2017-06-18T09:26:13.364Z,7.38
2017-06-18T09:28:43.048Z,4.42
2017-06-18T09:31:11.860Z,3.84
2017-06-18T09:33:40.748Z,3.82
2017-06-18T09:36:09.516Z,3.48
2017-06-18T09:38:38.276Z,3.92
2017-06-18T09:41:07.116Z,2.90
2017-06-18T09:43:35.904Z,2.68
2017-06-18T09:46:04.720Z,3.66
2017-06-18T09:48:33.536Z,2.64
2017-06-18T09:51:02.368Z,2.10
2017-06-18T09:53:31.152Z,2.96
2017-06-18T09:55:59.932Z,2.78
2017-06-18T09:58:28.704Z,5.84
2017-06-18T10:00:57.583Z,3.52
2017-06-18T10:03:26.380Z,3.92
2017-06-18T10:05:55.212Z,3.40
2017-06-18T10:08:23.999Z,4.34
2017-06-18T10:10:52.780Z,4.12
2017-06-18T10:13:21.591Z,2.70
2017-06-18T10:15:50.367Z,2.92
2017-06-18T10:18:19.236Z,3.54
2017-06-18T10:20:48.052Z,3.94
2017-06-18T10:23:33.671Z,4.60
2017-06-18T10:26:02.537Z,6.50
2017-06-18T10:28:31.327Z,4.84
2017-06-18T10:31:00.163Z,4.00
2017-06-18T10:33:29.487Z,3.16
2017-06-18T10:35:58.388Z,2.38
2017-06-18T10:38:27.191Z,2.86
2017-06-18T10:40:56.076Z,3.14
2017-06-18T10:43:24.951Z,3.56
2017-06-18T10:45:53.739Z,2.78
2017-06-18T10:48:22.655Z,3.46
2017-06-18T10:50:51.575Z,4.90
2017-06-18T10:53:20.424Z,2.94
2017-06-18T10:55:49.212Z,4.10
2017-06-18T10:58:18.007Z,5.56
2017-06-18T11:00:46.984Z,4.92
2017-06-18T11:03:15.763Z,3.20
2017-06-18T11:05:44.551Z,2.62
2017-06-18T11:08:13.483Z,5.56
2017-06-18T11:10:42.327Z,4.06
2017-06-18T11:13:11.103Z,3.00
2017-06-18T11:15:40.191Z,3.20
2017-06-18T11:18:09.171Z,4.96
2017-06-18T11:20:37.947Z,2.72
2017-06-18T11:23:06.723Z,2.36
2017-06-18T11:25:35.595Z,2.84
2017-06-18T11:28:04.351Z,2.30
2017-06-18T11:30:34.119Z,3.04
2017-06-18T11:33:02.943Z,3.14
2017-06-18T11:35:31.723Z,2.48
2017-06-18T11:38:00.534Z,3.34
2017-06-18T11:40:29.355Z,2.42
2017-06-18T11:42:58.144Z,2.34
2017-06-18T11:45:27.019Z,2.38
2017-06-18T11:47:55.883Z,2.76
2017-06-18T11:50:24.683Z,3.02
2017-06-18T11:52:53.447Z,2.88
2017-06-18T11:55:22.367Z,4.08
2017-06-18T11:57:51.191Z,2.88
2017-06-18T12:00:20.874Z,5.94
2017-06-18T12:02:49.675Z,4.52
2017-06-18T12:05:18.523Z,2.20
2017-06-18T12:07:47.346Z,2.42
2017-06-18T12:10:16.203Z,2.86
2017-06-18T12:12:45.098Z,3.88
2017-06-18T12:15:13.971Z,2.60
2017-06-18T12:17:42.758Z,5.98
2017-06-18T12:20:11.551Z,2.78
2017-06-18T12:22:40.370Z,3.28
2017-06-18T12:25:09.403Z,2.52
2017-06-18T12:27:38.326Z,2.98
2017-06-18T12:30:07.128Z,2.56
2017-06-18T12:32:36.286Z,2.60
2017-06-18T12:35:05.094Z,3.12
2017-06-18T12:37:33.893Z,6.22
2017-06-18T12:40:02.818Z,2.76
2017-06-18T12:42:32.795Z,2.68
2017-06-18T12:45:01.718Z,2.96
2017-06-18T12:47:30.675Z,2.74
2017-06-18T12:49:59.494Z,2.62
2017-06-18T12:52:28.387Z,3.74
2017-06-18T12:54:57.231Z,2.60
2017-06-18T12:57:26.002Z,4.08
2017-06-18T12:59:55.718Z,5.88
2017-06-18T13:02:24.578Z,2.64
2017-06-18T13:04:53.342Z,2.44
2017-06-18T13:07:22.178Z,2.90
2017-06-18T13:09:50.974Z,2.74
2017-06-18T13:12:19.854Z,2.16
2017-06-18T13:14:48.618Z,2.70
2017-06-18T13:17:17.482Z,2.98
2017-06-18T13:19:46.250Z,2.40
2017-06-18T13:22:15.058Z,3.04
2017-06-18T13:24:43.838Z,2.50
2017-06-18T13:27:12.710Z,2.54
2017-06-18T13:29:41.506Z,2.10
2017-06-18T13:32:10.302Z,3.90
2017-06-18T13:34:39.057Z,2.50
2017-06-18T13:37:07.834Z,2.86
2017-06-18T13:39:36.590Z,3.20
2017-06-18T13:42:05.353Z,2.68
2017-06-18T13:44:34.190Z,2.20
2017-06-18T13:47:03.014Z,2.74
2017-06-18T13:49:31.925Z,3.60
2017-06-18T13:52:00.781Z,3.90
2017-06-18T13:54:29.562Z,3.04
2017-06-18T13:56:58.361Z,2.62
2017-06-18T13:59:27.241Z,4.44
2017-06-18T14:01:57.013Z,2.22
2017-06-18T14:04:25.846Z,2.30
2017-06-18T14:06:54.630Z,4.00
2017-06-18T14:09:23.420Z,2.38
2017-06-18T14:11:52.297Z,2.42
2017-06-18T14:14:21.117Z,2.72
2017-06-18T14:16:49.902Z,2.94
2017-06-18T14:19:18.697Z,2.50
2017-06-18T14:21:47.506Z,2.84
2017-06-18T14:24:16.309Z,1.98
2017-06-18T14:26:45.130Z,2.80
2017-06-18T14:29:14.027Z,2.38
2017-06-18T14:31:42.793Z,2.92
2017-06-18T14:34:11.781Z,2.42
2017-06-18T14:36:40.605Z,1.94
2017-06-18T14:39:09.365Z,3.86
2017-06-18T14:41:38.145Z,1.64
2017-06-18T14:44:06.954Z,1.92
2017-06-18T14:46:35.707Z,2.20
2017-06-18T14:49:04.465Z,2.96
2017-06-18T14:51:33.260Z,2.60
2017-06-18T14:54:02.103Z,5.04
2017-06-18T14:56:30.913Z,6.12
2017-06-18T14:58:59.860Z,2.74
2017-06-18T15:01:28.661Z,3.54
2017-06-18T15:03:57.469Z,2.02
2017-06-18T15:06:26.345Z,2.18
2017-06-18T15:08:55.153Z,2.10
2017-06-18T15:11:24.285Z,2.30
2017-06-18T15:13:53.380Z,1.84
2017-06-18T15:16:22.268Z,2.84
2017-06-18T15:18:51.117Z,2.42
2017-06-18T15:21:19.984Z,2.62
2017-06-18T15:23:48.916Z,2.18
2017-06-18T15:26:17.757Z,2.12
2017-06-18T15:28:46.670Z,3.14
2017-06-18T15:31:15.452Z,4.54
2017-06-18T15:33:44.232Z,1.96
2017-06-18T15:36:13.136Z,2.32
2017-06-18T15:38:41.932Z,2.74
2017-06-18T15:41:10.861Z,2.38
2017-06-18T15:43:39.708Z,2.74
2017-06-18T15:46:09.180Z,4.08
2017-06-18T15:48:38.000Z,6.58
2017-06-18T15:51:06.900Z,2.54
2017-06-18T15:53:35.676Z,2.72
2017-06-18T15:56:04.644Z,3.20
2017-06-18T15:58:33.445Z,2.20
2017-06-18T16:01:02.248Z,1.74
2017-06-18T16:03:31.092Z,2.00
2017-06-18T16:05:59.960Z,2.00
2017-06-18T16:08:28.777Z,1.58
2017-06-18T16:10:57.604Z,2.58
2017-06-18T16:13:26.411Z,1.60
2017-06-18T16:15:55.300Z,6.42
2017-06-18T16:18:24.156Z,1.82
2017-06-18T16:20:52.936Z,2.00
2017-06-18T16:23:21.736Z,1.60
2017-06-18T16:25:50.547Z,1.90
2017-06-18T16:28:19.388Z,2.24
2017-06-18T16:30:48.156Z,3.60
2017-06-18T16:33:16.975Z,2.64
2017-06-18T16:35:45.756Z,2.96
2017-06-18T16:38:14.556Z,1.92
2017-06-18T16:40:43.631Z,2.20
2017-06-18T16:43:12.395Z,1.92
2017-06-18T16:45:41.152Z,3.14
2017-06-18T16:48:09.944Z,1.90
2017-06-18T16:50:38.811Z,2.24
2017-06-18T16:53:07.583Z,2.08
2017-06-18T16:55:36.387Z,2.22
2017-06-18T16:58:05.263Z,2.02
2017-06-18T17:00:34.830Z,1.70
2017-06-18T17:03:03.759Z,3.14
2017-06-18T17:05:32.555Z,1.94
2017-06-18T17:08:02.319Z,1.62
2017-06-18T17:10:31.135Z,2.02
2017-06-18T17:12:59.931Z,1.70
2017-06-18T17:15:28.707Z,1.60
2017-06-18T17:17:57.555Z,3.10
2017-06-18T17:20:26.403Z,2.88
2017-06-18T17:22:57.675Z,1.88
2017-06-18T17:25:26.483Z,2.04
2017-06-18T17:27:55.334Z,2.26
2017-06-18T17:30:24.135Z,3.58
2017-06-18T17:32:53.063Z,3.02
2017-06-18T17:35:21.859Z,1.62
2017-06-18T17:37:50.691Z,2.20
2017-06-18T17:40:19.571Z,2.38
2017-06-18T17:42:48.415Z,3.14
2017-06-18T17:45:17.271Z,1.92
2017-06-18T17:47:46.072Z,1.88
2017-06-18T17:50:14.835Z,1.70
2017-06-18T17:52:43.603Z,2.02
2017-06-18T17:55:12.436Z,3.42
2017-06-18T17:57:41.363Z,1.50
2017-06-18T18:00:10.132Z,2.80
2017-06-18T18:02:38.983Z,1.98
2017-06-18T18:05:07.767Z,2.72
2017-06-18T18:07:36.594Z,5.36
2017-06-18T18:10:05.426Z,1.52
2017-06-18T18:12:34.587Z,2.36
2017-06-18T18:15:03.403Z,1.72
2017-06-18T18:17:32.287Z,3.10
2017-06-18T18:20:02.131Z,2.70
2017-06-18T18:22:30.939Z,4.34
2017-06-18T18:24:59.782Z,3.22
2017-06-18T18:27:28.590Z,2.04
2017-06-18T18:29:57.474Z,3.48
2017-06-18T18:32:26.254Z,1.52
2017-06-18T18:34:55.039Z,1.90
2017-06-18T18:37:23.826Z,2.40
2017-06-18T18:39:52.728Z,2.60
2017-06-18T18:42:21.490Z,2.50
2017-06-18T18:44:50.270Z,3.10
2017-06-18T18:47:19.066Z,1.82
2017-06-18T18:49:47.854Z,2.04
2017-06-18T18:52:16.646Z,3.74
2017-06-18T18:54:45.462Z,3.66
2017-06-18T18:57:14.863Z,2.58
2017-06-18T18:59:43.638Z,2.46
2017-06-18T19:02:12.514Z,3.68
2017-06-18T19:04:41.338Z,4.90
2017-06-18T19:07:10.298Z,2.80
2017-06-18T19:09:39.110Z,1.64
2017-06-18T19:12:07.881Z,3.80
2017-06-18T19:14:36.642Z,3.04
2017-06-18T19:17:05.554Z,1.88
2017-06-18T19:19:34.998Z,2.40
2017-06-18T19:22:03.714Z,2.30
2017-06-18T19:24:32.529Z,3.90
2017-06-18T19:27:01.330Z,2.66
2017-06-18T19:29:30.129Z,5.00
2017-06-18T19:31:58.978Z,2.18
2017-06-18T19:34:27.741Z,2.88
2017-06-18T19:36:56.550Z,1.94
2017-06-18T19:39:25.329Z,3.82
2017-06-18T19:41:54.198Z,4.18
2017-06-18T19:44:23.073Z,3.24
2017-06-18T19:46:51.942Z,6.00
2017-06-18T19:49:20.826Z,4.28
2017-06-18T19:51:49.601Z,2.82
2017-06-18T19:54:18.369Z,4.14
2017-06-18T19:56:47.210Z,2.52
2017-06-18T19:59:15.989Z,3.74
2017-06-18T20:01:44.793Z,2.84
2017-06-18T20:04:13.649Z,6.74
2017-06-18T20:06:42.461Z,2.54
2017-06-18T20:09:11.433Z,4.60
2017-06-18T20:11:40.190Z,3.38
2017-06-18T20:14:09.829Z,4.14
2017-06-18T20:16:38.745Z,2.70
2017-06-18T20:19:07.513Z,2.88
2017-06-18T20:21:36.314Z,5.08
2017-06-18T20:24:05.121Z,4.52
2017-06-18T20:26:34.933Z,4.86
2017-06-18T20:29:03.733Z,2.34
2017-06-18T20:31:32.497Z,2.62
2017-06-18T20:34:01.398Z,3.66
2017-06-18T20:36:30.237Z,3.72
2017-06-18T20:38:59.017Z,4.94
2017-06-18T20:41:28.245Z,2.86
2017-06-18T20:43:57.025Z,3.46
2017-06-18T20:46:25.805Z,4.06
2017-06-18T20:48:54.589Z,4.74
2017-06-18T20:51:23.713Z,3.36
2017-06-18T20:53:52.489Z,9.64
2017-06-18T20:56:21.305Z,2.68
2017-06-18T20:58:50.077Z,2.78
2017-06-18T21:01:18.937Z,3.10
2017-06-18T21:03:47.708Z,3.68
2017-06-18T21:06:16.508Z,5.34
2017-06-18T21:08:45.341Z,4.04
2017-06-18T21:11:14.148Z,2.60
2017-06-18T21:13:43.024Z,3.00
2017-06-18T21:16:11.825Z,2.40
2017-06-18T21:18:40.616Z,2.48
2017-06-18T21:21:10.001Z,2.86
2017-06-18T21:23:38.804Z,2.58
2017-06-18T21:26:07.573Z,3.42
2017-06-18T21:28:36.416Z,2.38
2017-06-18T21:31:05.972Z,3.10
2017-06-18T21:33:34.812Z,5.30
2017-06-18T21:36:04.008Z,2.76
2017-06-18T21:38:33.013Z,3.32
2017-06-18T21:41:01.916Z,2.60
2017-06-18T21:43:30.793Z,4.48
2017-06-18T21:45:59.836Z,3.68
2017-06-18T21:48:28.608Z,4.04
2017-06-18T21:50:57.376Z,3.06
2017-06-18T21:53:26.176Z,4.72
2017-06-18T21:55:55.040Z,3.50
2017-06-18T21:58:23.924Z,3.54
2017-06-18T22:03:30.672Z,4.40
2017-06-18T22:05:59.499Z,4.40
2017-06-18T22:08:28.288Z,6.18
2017-06-18T22:10:57.056Z,4.06
2017-06-18T22:13:25.848Z,2.98
2017-06-18T22:15:54.623Z,4.78
2017-06-18T22:18:23.392Z,4.42
2017-06-18T22:20:52.191Z,4.38
2017-06-18T22:23:20.300Z,3.24
2017-06-18T22:25:49.084Z,3.58
2017-06-18T22:28:17.967Z,3.36
2017-06-18T22:30:46.756Z,2.84
2017-06-18T22:33:15.536Z,3.04
2017-06-18T22:35:44.340Z,5.72
2017-06-18T22:38:13.119Z,4.08
2017-06-18T22:40:41.899Z,3.22
2017-06-18T22:43:10.708Z,2.88
2017-06-18T22:45:39.812Z,9.82
2017-06-18T22:48:08.584Z,3.82
2017-06-18T22:50:37.387Z,3.30
2017-06-18T22:53:06.156Z,4.00
2017-06-18T22:55:34.931Z,4.02
2017-06-18T22:58:03.711Z,4.18
2017-06-18T23:00:32.484Z,4.44
2017-06-18T23:03:01.675Z,3.86
2017-06-18T23:05:30.508Z,3.64
2017-06-18T23:07:59.319Z,3.96
2017-06-18T23:10:28.084Z,3.96
2017-06-18T23:12:56.884Z,5.46
2017-06-18T23:15:25.655Z,5.34
2017-06-18T23:17:54.546Z,4.32
2017-06-18T23:20:23.323Z,4.10
2017-06-18T23:22:52.100Z,4.46
2017-06-18T23:25:20.859Z,3.90
2017-06-18T23:27:49.667Z,3.08
2017-06-18T23:30:18.455Z,3.86
2017-06-18T23:32:47.227Z,4.96
2017-06-18T23:35:16.027Z,3.52
2017-06-18T23:37:44.796Z,3.00
2017-06-18T23:40:13.575Z,2.90
2017-06-18T23:42:42.423Z,5.80
2017-06-18T23:45:11.411Z,5.24
2017-06-18T23:47:40.183Z,3.14
2017-06-18T23:50:08.975Z,3.64
2017-06-18T23:52:37.752Z,3.16
2017-06-18T23:55:06.567Z,4.36
2017-06-18T23:57:36.379Z,4.64
